AGUSAN URFF-UMKK
Flight info
| Callsign | AGUSAN |
|---|---|
| Flight time | N/A |
| Altitude | FL430 |
| Route | NITOK M850 RIMDA N191 NIROV P156 BEGDA DCT LAKOD A926 BENAL L33 NIFAL |
| Aircraft | C750/M-L/C |
Departure
| Time | N/A |
|---|---|
| Airport | URFF |
Arrival
| Time | 2026-04-30 14:19 |
|---|---|
| Airport | Khrabrovo Airport (UMKK) |
| Time | Latitude | Longitude | Altitude | Speed | Heading |
|---|---|---|---|---|---|
| 2026-04-30 12:00 | 45.03551 | 33.97676 | 603 ft | 0 kts | 14° |
| 2026-04-30 12:14 | 45.03550 | 33.97676 | 605 ft | 1 kts | 14° |
| 2026-04-30 12:14 | 45.03526 | 33.97668 | 602 ft | 4 kts | 14° |
| 2026-04-30 12:14 | 45.03500 | 33.97659 | 603 ft | 4 kts | 11° |
| 2026-04-30 12:15 | 45.03480 | 33.97655 | 602 ft | 2 kts | 359° |
| 2026-04-30 12:15 | 45.03470 | 33.97658 | 602 ft | 2 kts | 326° |
| 2026-04-30 12:15 | 45.03462 | 33.97669 | 600 ft | 2 kts | 294° |
| 2026-04-30 12:15 | 45.03459 | 33.97681 | 603 ft | 0 kts | 288° |
| 2026-04-30 12:17 | 45.03461 | 33.97672 | 600 ft | 3 kts | 289° |
| 2026-04-30 12:17 | 45.03476 | 33.97571 | 603 ft | 17 kts | 279° |
| 2026-04-30 12:18 | 45.03506 | 33.97344 | 603 ft | 30 kts | 281° |
| 2026-04-30 12:18 | 45.03550 | 33.97052 | 603 ft | 29 kts | 289° |
| 2026-04-30 12:18 | 45.03706 | 33.96932 | 603 ft | 25 kts | 339° |
| 2026-04-30 12:18 | 45.03865 | 33.96912 | 609 ft | 24 kts | 14° |
| 2026-04-30 12:19 | 45.04401 | 33.97095 | 602 ft | 129 kts | 14° |
| 2026-04-30 12:19 | 45.05379 | 33.97431 | 896 ft | 151 kts | 15° |
| 2026-04-30 12:19 | 45.06452 | 33.97780 | 1450 ft | 168 kts | 11° |
| 2026-04-30 12:19 | 45.07673 | 33.97661 | 2101 ft | 181 kts | 352° |
| 2026-04-30 12:20 | 45.08869 | 33.97116 | 2965 ft | 184 kts | 342° |
| 2026-04-30 12:20 | 45.10066 | 33.96310 | 3575 ft | 199 kts | 329° |
| 2026-04-30 12:20 | 45.11046 | 33.94871 | 4243 ft | 208 kts | 312° |
| 2026-04-30 12:20 | 45.11999 | 33.93388 | 5140 ft | 200 kts | 315° |
| 2026-04-30 12:21 | 45.12973 | 33.92057 | 6239 ft | 195 kts | 318° |
| 2026-04-30 12:21 | 45.14079 | 33.90716 | 6626 ft | 228 kts | 319° |
| 2026-04-30 12:21 | 45.15323 | 33.89116 | 7052 ft | 252 kts | 316° |
| 2026-04-30 12:21 | 45.16591 | 33.87368 | 8079 ft | 253 kts | 315° |
| 2026-04-30 12:22 | 45.17829 | 33.85647 | 9372 ft | 250 kts | 314° |
| 2026-04-30 12:22 | 45.19136 | 33.83867 | 9459 ft | 273 kts | 315° |
| 2026-04-30 12:22 | 45.20530 | 33.81914 | 9016 ft | 299 kts | 311° |
| 2026-04-30 12:22 | 45.21933 | 33.79714 | 10109 ft | 291 kts | 312° |
| 2026-04-30 12:23 | 45.23365 | 33.77799 | 11422 ft | 285 kts | 318° |
| 2026-04-30 12:23 | 45.25055 | 33.76117 | 11746 ft | 311 kts | 326° |
| 2026-04-30 12:23 | 45.26985 | 33.74478 | 11899 ft | 337 kts | 327° |
| 2026-04-30 12:23 | 45.28989 | 33.72637 | 12434 ft | 345 kts | 323° |
| 2026-04-30 12:24 | 45.30948 | 33.70670 | 13302 ft | 347 kts | 322° |
| 2026-04-30 12:24 | 45.32937 | 33.68713 | 14066 ft | 351 kts | 323° |
| 2026-04-30 12:24 | 45.34974 | 33.66789 | 14765 ft | 354 kts | 323° |
| 2026-04-30 12:24 | 45.37024 | 33.64839 | 15461 ft | 356 kts | 322° |
| 2026-04-30 12:25 | 45.39069 | 33.62851 | 16164 ft | 359 kts | 321° |
| 2026-04-30 12:25 | 45.41135 | 33.60843 | 16914 ft | 362 kts | 321° |
| 2026-04-30 12:25 | 45.43223 | 33.58831 | 17655 ft | 365 kts | 321° |
| 2026-04-30 12:25 | 45.45327 | 33.56803 | 18418 ft | 368 kts | 320° |
| 2026-04-30 12:26 | 45.47449 | 33.54747 | 19094 ft | 371 kts | 320° |
| 2026-04-30 12:26 | 45.49587 | 33.52673 | 19789 ft | 374 kts | 320° |
| 2026-04-30 12:26 | 45.51742 | 33.50583 | 20487 ft | 377 kts | 319° |
| 2026-04-30 12:26 | 45.53910 | 33.48481 | 21197 ft | 379 kts | 319° |
| 2026-04-30 12:27 | 45.56091 | 33.46361 | 21897 ft | 382 kts | 319° |
| 2026-04-30 12:27 | 45.58291 | 33.44219 | 22591 ft | 385 kts | 319° |
| 2026-04-30 12:27 | 45.60504 | 33.42066 | 23302 ft | 387 kts | 319° |
| 2026-04-30 12:27 | 45.62731 | 33.39896 | 23961 ft | 390 kts | 318° |
| 2026-04-30 12:28 | 45.64971 | 33.37711 | 24560 ft | 392 kts | 318° |
| 2026-04-30 12:28 | 45.67219 | 33.35516 | 25159 ft | 393 kts | 318° |
| 2026-04-30 12:28 | 45.69482 | 33.33304 | 25751 ft | 396 kts | 317° |
| 2026-04-30 12:28 | 45.71759 | 33.31077 | 26343 ft | 398 kts | 317° |
| 2026-04-30 12:29 | 45.74045 | 33.28837 | 26926 ft | 401 kts | 317° |
| 2026-04-30 12:29 | 45.76345 | 33.26582 | 27515 ft | 403 kts | 317° |
| 2026-04-30 12:29 | 45.78666 | 33.24305 | 28097 ft | 406 kts | 317° |
| 2026-04-30 12:29 | 45.81000 | 33.22011 | 28680 ft | 409 kts | 317° |
| 2026-04-30 12:30 | 45.83350 | 33.19700 | 29256 ft | 412 kts | 317° |
| 2026-04-30 12:30 | 45.85716 | 33.17371 | 29821 ft | 415 kts | 316° |
| 2026-04-30 12:30 | 45.88104 | 33.15018 | 30368 ft | 418 kts | 316° |
| 2026-04-30 12:30 | 45.90508 | 33.12646 | 30804 ft | 422 kts | 316° |
| 2026-04-30 12:31 | 45.92931 | 33.10251 | 31220 ft | 426 kts | 316° |
| 2026-04-30 12:31 | 45.95368 | 33.07847 | 31844 ft | 425 kts | 316° |
| 2026-04-30 12:31 | 45.97798 | 33.05445 | 32433 ft | 425 kts | 316° |
| 2026-04-30 12:31 | 46.00232 | 33.03029 | 32978 ft | 427 kts | 317° |
| 2026-04-30 12:32 | 46.02671 | 33.00608 | 33538 ft | 428 kts | 317° |
| 2026-04-30 12:32 | 46.05122 | 32.98176 | 34102 ft | 429 kts | 317° |
| 2026-04-30 12:32 | 46.07579 | 32.95734 | 34576 ft | 431 kts | 317° |
| 2026-04-30 12:32 | 46.10046 | 32.93279 | 35029 ft | 433 kts | 317° |
| 2026-04-30 12:33 | 46.12553 | 32.90862 | 35460 ft | 438 kts | 321° |
| 2026-04-30 12:33 | 46.15282 | 32.88832 | 35922 ft | 444 kts | 327° |
| 2026-04-30 12:33 | 46.18049 | 32.86868 | 36445 ft | 444 kts | 327° |
| 2026-04-30 12:33 | 46.20804 | 32.84858 | 36945 ft | 445 kts | 327° |
| 2026-04-30 12:34 | 46.23561 | 32.82846 | 37441 ft | 446 kts | 327° |
| 2026-04-30 12:34 | 46.26335 | 32.80851 | 37952 ft | 447 kts | 328° |
| 2026-04-30 12:34 | 46.29117 | 32.78853 | 38463 ft | 448 kts | 328° |
| 2026-04-30 12:34 | 46.31896 | 32.76837 | 38980 ft | 448 kts | 328° |
| 2026-04-30 12:35 | 46.34675 | 32.74813 | 39397 ft | 448 kts | 329° |
| 2026-04-30 12:35 | 46.37461 | 32.72791 | 39823 ft | 449 kts | 329° |
| 2026-04-30 12:35 | 46.40250 | 32.70769 | 40247 ft | 449 kts | 329° |
| 2026-04-30 12:35 | 46.43037 | 32.68741 | 40679 ft | 449 kts | 329° |
| 2026-04-30 12:36 | 46.45827 | 32.66705 | 41113 ft | 450 kts | 329° |
| 2026-04-30 12:36 | 46.48617 | 32.64669 | 41539 ft | 450 kts | 329° |
| 2026-04-30 12:36 | 46.51411 | 32.62631 | 41971 ft | 450 kts | 329° |
| 2026-04-30 12:36 | 46.54203 | 32.60590 | 42395 ft | 451 kts | 329° |
| 2026-04-30 12:37 | 46.56998 | 32.58543 | 42816 ft | 451 kts | 330° |
| 2026-04-30 12:37 | 46.59796 | 32.56492 | 43227 ft | 451 kts | 330° |
| 2026-04-30 12:37 | 46.65510 | 32.52294 | 43236 ft | 470 kts | 330° |
| 2026-04-30 12:38 | 46.71510 | 32.48115 | 43254 ft | 488 kts | 332° |
| 2026-04-30 12:38 | 46.77725 | 32.43856 | 43251 ft | 500 kts | 332° |
| 2026-04-30 12:39 | 46.84036 | 32.39550 | 43248 ft | 503 kts | 332° |
| 2026-04-30 12:39 | 46.90353 | 32.35212 | 43250 ft | 503 kts | 332° |
| 2026-04-30 12:40 | 46.96672 | 32.30867 | 43265 ft | 503 kts | 332° |
| 2026-04-30 12:40 | 47.02992 | 32.26509 | 43271 ft | 503 kts | 332° |
| 2026-04-30 12:41 | 47.09314 | 32.22138 | 43264 ft | 503 kts | 332° |
| 2026-04-30 12:41 | 47.15636 | 32.17756 | 43263 ft | 503 kts | 332° |
| 2026-04-30 12:42 | 47.21960 | 32.13360 | 43263 ft | 504 kts | 332° |
| 2026-04-30 12:42 | 47.28283 | 32.08955 | 43267 ft | 504 kts | 332° |
| 2026-04-30 12:43 | 47.34611 | 32.04533 | 43270 ft | 504 kts | 332° |
| 2026-04-30 12:43 | 47.40940 | 32.00099 | 43265 ft | 505 kts | 332° |
| 2026-04-30 12:44 | 47.47269 | 31.95653 | 43260 ft | 504 kts | 332° |
| 2026-04-30 12:44 | 47.53593 | 31.91199 | 43266 ft | 505 kts | 332° |
| 2026-04-30 12:45 | 47.59851 | 31.86552 | 43241 ft | 503 kts | 326° |
| 2026-04-30 12:45 | 47.65111 | 31.79910 | 43259 ft | 498 kts | 309° |
| 2026-04-30 12:46 | 47.69130 | 31.71595 | 43282 ft | 499 kts | 303° |
| 2026-04-30 12:46 | 47.73180 | 31.63244 | 43285 ft | 499 kts | 305° |
| 2026-04-30 12:47 | 47.77202 | 31.54862 | 43276 ft | 499 kts | 303° |
| 2026-04-30 12:47 | 47.81210 | 31.46465 | 43276 ft | 499 kts | 304° |
| 2026-04-30 12:48 | 47.85233 | 31.38059 | 43281 ft | 500 kts | 304° |
| 2026-04-30 12:48 | 47.89236 | 31.29617 | 43278 ft | 500 kts | 304° |
| 2026-04-30 12:49 | 47.93251 | 31.21171 | 43282 ft | 500 kts | 304° |
| 2026-04-30 12:49 | 47.97247 | 31.12700 | 43289 ft | 501 kts | 304° |
| 2026-04-30 12:50 | 48.01255 | 31.04205 | 43287 ft | 501 kts | 304° |
| 2026-04-30 12:50 | 48.05224 | 30.95664 | 43284 ft | 501 kts | 302° |
| 2026-04-30 12:51 | 48.09116 | 30.87034 | 43292 ft | 502 kts | 303° |
| 2026-04-30 12:51 | 48.12999 | 30.78387 | 43296 ft | 502 kts | 303° |
| 2026-04-30 12:52 | 48.16876 | 30.69706 | 43296 ft | 502 kts | 303° |
| 2026-04-30 12:52 | 48.20754 | 30.61024 | 43300 ft | 502 kts | 303° |
| 2026-04-30 12:53 | 48.24620 | 30.52311 | 43300 ft | 503 kts | 303° |
| 2026-04-30 12:53 | 48.28488 | 30.43590 | 43306 ft | 503 kts | 303° |
| 2026-04-30 12:54 | 48.32344 | 30.34851 | 43302 ft | 503 kts | 303° |
| 2026-04-30 12:54 | 48.36198 | 30.26100 | 43302 ft | 503 kts | 303° |
| 2026-04-30 12:55 | 48.40041 | 30.17337 | 43303 ft | 503 kts | 303° |
| 2026-04-30 12:55 | 48.43877 | 30.08566 | 43305 ft | 503 kts | 303° |
| 2026-04-30 12:56 | 48.47707 | 29.99779 | 43307 ft | 503 kts | 303° |
| 2026-04-30 12:56 | 48.51532 | 29.90976 | 43311 ft | 503 kts | 303° |
| 2026-04-30 12:57 | 48.55351 | 29.82158 | 43312 ft | 503 kts | 303° |
| 2026-04-30 12:57 | 48.59162 | 29.73329 | 43309 ft | 503 kts | 303° |
| 2026-04-30 12:58 | 48.62969 | 29.64480 | 43312 ft | 504 kts | 303° |
| 2026-04-30 12:58 | 48.66773 | 29.55608 | 43312 ft | 504 kts | 303° |
| 2026-04-30 12:59 | 48.70571 | 29.46723 | 43315 ft | 504 kts | 303° |
| 2026-04-30 12:59 | 48.74364 | 29.37818 | 43317 ft | 504 kts | 303° |
| 2026-04-30 13:00 | 48.78151 | 29.28898 | 43321 ft | 504 kts | 303° |
| 2026-04-30 13:00 | 48.81933 | 29.19961 | 43322 ft | 505 kts | 302° |
| 2026-04-30 13:01 | 48.85710 | 29.11005 | 43321 ft | 505 kts | 302° |
| 2026-04-30 13:01 | 48.89482 | 29.02032 | 43314 ft | 504 kts | 302° |
| 2026-04-30 13:02 | 48.93242 | 28.93055 | 43318 ft | 505 kts | 302° |
| 2026-04-30 13:02 | 48.97673 | 28.84858 | 43306 ft | 505 kts | 317° |
| 2026-04-30 13:03 | 49.03487 | 28.78933 | 43333 ft | 506 kts | 332° |
| 2026-04-30 13:03 | 49.09781 | 28.74154 | 43334 ft | 506 kts | 331° |
| 2026-04-30 13:04 | 49.15871 | 28.68801 | 43333 ft | 506 kts | 330° |
| 2026-04-30 13:04 | 49.22070 | 28.63757 | 43332 ft | 506 kts | 332° |
| 2026-04-30 13:05 | 49.28210 | 28.58534 | 43337 ft | 506 kts | 330° |
| 2026-04-30 13:06 | 49.37456 | 28.50839 | 43335 ft | 505 kts | 331° |
| 2026-04-30 13:06 | 49.43593 | 28.45625 | 43339 ft | 505 kts | 331° |
| 2026-04-30 13:07 | 49.49746 | 28.40463 | 43341 ft | 505 kts | 331° |
| 2026-04-30 13:07 | 49.55886 | 28.35245 | 43341 ft | 505 kts | 331° |
| 2026-04-30 13:08 | 49.62030 | 28.30040 | 43342 ft | 505 kts | 331° |
| 2026-04-30 13:08 | 49.68168 | 28.24808 | 43344 ft | 505 kts | 331° |
| 2026-04-30 13:09 | 49.74303 | 28.19564 | 43339 ft | 505 kts | 331° |
| 2026-04-30 13:09 | 49.80435 | 28.14287 | 43336 ft | 505 kts | 331° |
| 2026-04-30 13:10 | 49.86562 | 28.09010 | 43343 ft | 505 kts | 331° |
| 2026-04-30 13:10 | 49.92691 | 28.03710 | 43343 ft | 505 kts | 331° |
| 2026-04-30 13:11 | 49.98817 | 27.98400 | 43342 ft | 505 kts | 331° |
| 2026-04-30 13:11 | 50.04939 | 27.93077 | 43341 ft | 505 kts | 330° |
| 2026-04-30 13:12 | 50.11056 | 27.87742 | 43343 ft | 505 kts | 331° |
| 2026-04-30 13:12 | 50.17175 | 27.82390 | 43339 ft | 505 kts | 331° |
| 2026-04-30 13:13 | 50.26348 | 27.74337 | 43344 ft | 505 kts | 331° |
| 2026-04-30 13:14 | 50.35513 | 27.66255 | 43336 ft | 505 kts | 331° |
| 2026-04-30 13:14 | 50.44700 | 27.58117 | 43347 ft | 507 kts | 331° |
| 2026-04-30 13:15 | 50.53886 | 27.49943 | 43343 ft | 507 kts | 330° |
| 2026-04-30 13:16 | 50.60003 | 27.44479 | 43341 ft | 506 kts | 330° |
| 2026-04-30 13:16 | 50.66113 | 27.39007 | 43343 ft | 506 kts | 330° |
| 2026-04-30 13:17 | 50.75375 | 27.31079 | 43345 ft | 506 kts | 333° |
| 2026-04-30 13:18 | 50.84729 | 27.23438 | 43353 ft | 506 kts | 333° |
| 2026-04-30 13:18 | 50.94080 | 27.15778 | 43350 ft | 505 kts | 333° |
| 2026-04-30 13:19 | 51.00310 | 27.10642 | 43346 ft | 506 kts | 333° |
| 2026-04-30 13:19 | 51.06520 | 27.05518 | 43342 ft | 505 kts | 333° |
| 2026-04-30 13:20 | 51.12760 | 27.00345 | 43338 ft | 505 kts | 333° |
| 2026-04-30 13:20 | 51.18982 | 26.95177 | 43331 ft | 506 kts | 333° |
| 2026-04-30 13:21 | 51.25204 | 26.89990 | 43330 ft | 505 kts | 333° |
| 2026-04-30 13:22 | 51.34520 | 26.82196 | 43330 ft | 504 kts | 333° |
| 2026-04-30 13:22 | 51.43819 | 26.74380 | 43327 ft | 504 kts | 333° |
| 2026-04-30 13:23 | 51.53099 | 26.66542 | 43330 ft | 503 kts | 333° |
| 2026-04-30 13:24 | 51.65451 | 26.56055 | 43317 ft | 503 kts | 333° |
| 2026-04-30 13:25 | 51.77775 | 26.45526 | 43323 ft | 502 kts | 333° |
| 2026-04-30 13:26 | 51.93158 | 26.32290 | 43323 ft | 502 kts | 333° |
| 2026-04-30 13:28 | 52.08500 | 26.18985 | 43315 ft | 501 kts | 333° |
| 2026-04-30 13:28 | 52.17734 | 26.11054 | 43320 ft | 501 kts | 334° |
| 2026-04-30 13:29 | 52.30126 | 26.00722 | 43322 ft | 501 kts | 334° |
| 2026-04-30 13:31 | 52.45570 | 25.87778 | 43314 ft | 499 kts | 334° |
| 2026-04-30 13:32 | 52.60949 | 25.74782 | 43315 ft | 498 kts | 334° |
| 2026-04-30 13:33 | 52.73235 | 25.64326 | 43312 ft | 498 kts | 334° |
| 2026-04-30 13:34 | 52.82444 | 25.56446 | 43308 ft | 498 kts | 334° |
| 2026-04-30 13:35 | 52.94729 | 25.45874 | 43322 ft | 499 kts | 334° |
| 2026-04-30 13:36 | 53.06996 | 25.35249 | 43328 ft | 498 kts | 334° |
| 2026-04-30 13:36 | 53.16191 | 25.27240 | 43324 ft | 498 kts | 334° |
| 2026-04-30 13:37 | 53.25378 | 25.19198 | 43328 ft | 498 kts | 334° |
| 2026-04-30 13:38 | 53.34544 | 25.11135 | 43327 ft | 497 kts | 334° |
| 2026-04-30 13:39 | 53.46755 | 25.00334 | 43336 ft | 497 kts | 334° |
| 2026-04-30 13:40 | 53.55907 | 24.92208 | 43340 ft | 497 kts | 334° |
| 2026-04-30 13:40 | 53.62000 | 24.86772 | 43341 ft | 496 kts | 334° |
| 2026-04-30 13:41 | 53.68087 | 24.81328 | 43345 ft | 496 kts | 334° |
| 2026-04-30 13:41 | 53.74169 | 24.75868 | 43354 ft | 496 kts | 334° |
| 2026-04-30 13:42 | 53.80244 | 24.70397 | 43354 ft | 496 kts | 334° |
| 2026-04-30 13:42 | 53.89340 | 24.62171 | 43361 ft | 495 kts | 334° |
| 2026-04-30 13:43 | 53.95274 | 24.56294 | 43357 ft | 497 kts | 326° |
| 2026-04-30 13:43 | 54.00140 | 24.47902 | 43368 ft | 505 kts | 309° |
| 2026-04-30 13:44 | 54.04018 | 24.37919 | 43395 ft | 507 kts | 307° |
| 2026-04-30 13:44 | 54.07907 | 24.27967 | 43394 ft | 506 kts | 307° |
| 2026-04-30 13:45 | 54.13684 | 24.12963 | 43378 ft | 505 kts | 307° |
| 2026-04-30 13:46 | 54.17534 | 24.02969 | 43376 ft | 505 kts | 307° |
| 2026-04-30 13:46 | 54.21364 | 23.92940 | 43382 ft | 505 kts | 306° |
| 2026-04-30 13:47 | 54.25197 | 23.82894 | 43387 ft | 505 kts | 306° |
| 2026-04-30 13:47 | 54.29016 | 23.72824 | 43381 ft | 505 kts | 306° |
| 2026-04-30 13:48 | 54.32828 | 23.62746 | 43378 ft | 505 kts | 306° |
| 2026-04-30 13:48 | 54.36630 | 23.52644 | 43381 ft | 505 kts | 306° |
| 2026-04-30 13:49 | 54.40426 | 23.42521 | 43376 ft | 505 kts | 306° |
| 2026-04-30 13:49 | 54.44214 | 23.32377 | 43377 ft | 506 kts | 306° |
| 2026-04-30 13:50 | 54.47995 | 23.22211 | 43380 ft | 506 kts | 306° |
| 2026-04-30 13:50 | 54.53644 | 23.06943 | 43380 ft | 506 kts | 306° |
| 2026-04-30 13:51 | 54.57403 | 22.96733 | 43373 ft | 505 kts | 306° |
| 2026-04-30 13:51 | 54.61149 | 22.86513 | 43373 ft | 505 kts | 306° |
| 2026-04-30 13:52 | 54.64657 | 22.76006 | 43369 ft | 510 kts | 297° |
| 2026-04-30 13:52 | 54.66579 | 22.64143 | 43393 ft | 520 kts | 284° |
| 2026-04-30 13:53 | 54.67902 | 22.51878 | 43391 ft | 519 kts | 285° |
| 2026-04-30 13:53 | 54.69403 | 22.39695 | 43390 ft | 520 kts | 285° |
| 2026-04-30 13:54 | 54.70756 | 22.27446 | 43389 ft | 520 kts | 285° |
| 2026-04-30 13:54 | 54.72185 | 22.15235 | 43381 ft | 519 kts | 285° |
| 2026-04-30 13:55 | 54.73546 | 22.02998 | 43379 ft | 519 kts | 284° |
| 2026-04-30 13:55 | 54.74926 | 21.90768 | 43381 ft | 519 kts | 285° |
| 2026-04-30 13:56 | 54.76278 | 21.78521 | 43373 ft | 519 kts | 284° |
| 2026-04-30 13:56 | 54.77624 | 21.66274 | 43373 ft | 519 kts | 285° |
| 2026-04-30 13:57 | 54.78232 | 21.53800 | 43371 ft | 528 kts | 270° |
| 2026-04-30 13:57 | 54.76790 | 21.41526 | 43317 ft | 506 kts | 253° |
| 2026-04-30 13:58 | 54.75401 | 21.36195 | 42996 ft | 462 kts | 245° |
| 2026-04-30 13:58 | 54.71804 | 21.27444 | 37816 ft | 458 kts | 230° |
| 2026-04-30 13:58 | 54.69416 | 21.23610 | 33849 ft | 482 kts | 221° |
| 2026-04-30 13:59 | 54.66576 | 21.20507 | 29030 ft | 498 kts | 203° |
| 2026-04-30 13:59 | 54.63231 | 21.19116 | 25403 ft | 486 kts | 180° |
| 2026-04-30 13:59 | 54.60038 | 21.19913 | 23854 ft | 446 kts | 154° |
| 2026-04-30 13:59 | 54.57549 | 21.22460 | 23237 ft | 392 kts | 130° |
| 2026-04-30 14:00 | 54.56028 | 21.25958 | 22621 ft | 345 kts | 104° |
| 2026-04-30 14:00 | 54.55618 | 21.33322 | 21592 ft | 293 kts | 75° |
| 2026-04-30 14:00 | 54.55920 | 21.36725 | 21130 ft | 283 kts | 70° |
| 2026-04-30 14:01 | 54.56448 | 21.40075 | 20638 ft | 305 kts | 64° |
| 2026-04-30 14:01 | 54.57214 | 21.43693 | 20137 ft | 344 kts | 67° |
| 2026-04-30 14:01 | 54.57374 | 21.47985 | 19571 ft | 369 kts | 87° |
| 2026-04-30 14:01 | 54.56931 | 21.52381 | 19122 ft | 376 kts | 95° |
| 2026-04-30 14:02 | 54.56322 | 21.56764 | 18555 ft | 377 kts | 97° |
| 2026-04-30 14:02 | 54.55437 | 21.61028 | 17737 ft | 388 kts | 112° |
| 2026-04-30 14:02 | 54.53628 | 21.64554 | 16878 ft | 403 kts | 136° |
| 2026-04-30 14:02 | 54.51108 | 21.66682 | 15899 ft | 410 kts | 159° |
| 2026-04-30 14:03 | 54.48261 | 21.67216 | 14261 ft | 421 kts | 184° |
| 2026-04-30 14:03 | 54.45592 | 21.65673 | 13713 ft | 392 kts | 211° |
| 2026-04-30 14:03 | 54.43684 | 21.62678 | 13302 ft | 358 kts | 238° |
| 2026-04-30 14:03 | 54.42830 | 21.58967 | 13024 ft | 319 kts | 268° |
| 2026-04-30 14:04 | 54.43085 | 21.55429 | 12733 ft | 289 kts | 298° |
| 2026-04-30 14:04 | 54.44198 | 21.52714 | 12540 ft | 274 kts | 318° |
| 2026-04-30 14:04 | 54.45558 | 21.50412 | 12450 ft | 275 kts | 322° |
| 2026-04-30 14:04 | 54.46953 | 21.48159 | 12352 ft | 276 kts | 322° |
| 2026-04-30 14:05 | 54.48353 | 21.45912 | 12227 ft | 276 kts | 322° |
| 2026-04-30 14:05 | 54.49753 | 21.43665 | 12083 ft | 276 kts | 322° |
| 2026-04-30 14:05 | 54.51153 | 21.41422 | 11934 ft | 275 kts | 322° |
| 2026-04-30 14:05 | 54.52547 | 21.39185 | 11780 ft | 275 kts | 322° |
| 2026-04-30 14:06 | 54.53941 | 21.36953 | 11621 ft | 274 kts | 322° |
| 2026-04-30 14:06 | 54.56723 | 21.32498 | 11314 ft | 273 kts | 322° |
| 2026-04-30 14:07 | 54.59500 | 21.28068 | 11016 ft | 272 kts | 322° |
| 2026-04-30 14:07 | 54.60887 | 21.25863 | 10863 ft | 271 kts | 322° |
| 2026-04-30 14:07 | 54.62273 | 21.23664 | 10708 ft | 271 kts | 322° |
| 2026-04-30 14:08 | 54.65054 | 21.19273 | 10214 ft | 270 kts | 322° |
| 2026-04-30 14:08 | 54.66447 | 21.17085 | 9763 ft | 271 kts | 322° |
| 2026-04-30 14:08 | 54.69208 | 21.12790 | 8861 ft | 264 kts | 322° |
| 2026-04-30 14:09 | 54.70565 | 21.10699 | 8418 ft | 260 kts | 322° |
| 2026-04-30 14:09 | 54.71914 | 21.08634 | 7977 ft | 259 kts | 322° |
| 2026-04-30 14:09 | 54.74595 | 21.04571 | 7147 ft | 254 kts | 322° |
| 2026-04-30 14:10 | 54.75923 | 21.02571 | 6762 ft | 253 kts | 322° |
| 2026-04-30 14:10 | 54.77289 | 21.00696 | 6372 ft | 250 kts | 326° |
| 2026-04-30 14:10 | 54.78717 | 20.99046 | 5946 ft | 247 kts | 338° |
| 2026-04-30 14:10 | 54.80326 | 20.98339 | 5597 ft | 233 kts | 350° |
| 2026-04-30 14:11 | 54.81882 | 20.97913 | 5288 ft | 222 kts | 351° |
| 2026-04-30 14:11 | 54.83374 | 20.97523 | 4953 ft | 213 kts | 351° |
| 2026-04-30 14:11 | 54.84822 | 20.97152 | 4668 ft | 208 kts | 351° |
| 2026-04-30 14:11 | 54.86246 | 20.96798 | 4345 ft | 206 kts | 351° |
| 2026-04-30 14:12 | 54.87667 | 20.96451 | 4026 ft | 208 kts | 351° |
| 2026-04-30 14:12 | 54.89102 | 20.96102 | 3702 ft | 209 kts | 351° |
| 2026-04-30 14:12 | 54.90542 | 20.95762 | 3352 ft | 210 kts | 351° |
| 2026-04-30 14:12 | 54.91999 | 20.95429 | 3001 ft | 215 kts | 351° |
| 2026-04-30 14:13 | 54.93502 | 20.95095 | 2664 ft | 221 kts | 351° |
| 2026-04-30 14:13 | 54.95046 | 20.94767 | 2344 ft | 226 kts | 351° |
| 2026-04-30 14:13 | 54.96515 | 20.93937 | 1907 ft | 225 kts | 322° |
| 2026-04-30 14:13 | 54.97361 | 20.91811 | 1864 ft | 208 kts | 289° |
| 2026-04-30 14:14 | 54.97243 | 20.89434 | 1842 ft | 200 kts | 244° |
| 2026-04-30 14:14 | 54.96413 | 20.87606 | 1946 ft | 184 kts | 237° |
| 2026-04-30 14:14 | 54.95852 | 20.85707 | 2012 ft | 175 kts | 248° |
| 2026-04-30 14:14 | 54.95362 | 20.83817 | 2011 ft | 169 kts | 248° |
| 2026-04-30 14:15 | 54.94889 | 20.81987 | 1998 ft | 163 kts | 248° |
| 2026-04-30 14:15 | 54.94428 | 20.80206 | 1990 ft | 162 kts | 249° |
| 2026-04-30 14:15 | 54.93987 | 20.78508 | 1988 ft | 147 kts | 249° |
| 2026-04-30 14:15 | 54.93587 | 20.76966 | 1982 ft | 135 kts | 249° |
| 2026-04-30 14:16 | 54.93199 | 20.75465 | 1800 ft | 136 kts | 249° |
| 2026-04-30 14:16 | 54.92817 | 20.73992 | 1603 ft | 129 kts | 249° |
| 2026-04-30 14:16 | 54.92464 | 20.72634 | 1443 ft | 119 kts | 248° |
| 2026-04-30 14:16 | 54.92141 | 20.71373 | 1308 ft | 111 kts | 249° |
| 2026-04-30 14:17 | 54.91830 | 20.70098 | 1122 ft | 118 kts | 249° |
| 2026-04-30 14:17 | 54.91501 | 20.68801 | 987 ft | 116 kts | 248° |
| 2026-04-30 14:17 | 54.91157 | 20.67518 | 806 ft | 119 kts | 247° |
| 2026-04-30 14:17 | 54.90801 | 20.66216 | 693 ft | 118 kts | 248° |
| 2026-04-30 14:18 | 54.90456 | 20.64925 | 474 ft | 119 kts | 247° |
| 2026-04-30 14:18 | 54.90136 | 20.63619 | 276 ft | 117 kts | 247° |
| 2026-04-30 14:18 | 54.89504 | 20.61154 | 21 ft | 97 kts | 248° |
| 2026-04-30 14:19 | 54.89201 | 20.60005 | 17 ft | 32 kts | 245° |
| 2026-04-30 14:19 | 54.89117 | 20.59667 | 19 ft | 29 kts | 246° |
| 2026-04-30 14:19 | 54.89036 | 20.59364 | 21 ft | 27 kts | 244° |
| 2026-04-30 14:20 | 54.88959 | 20.59082 | 20 ft | 26 kts | 244° |
| 2026-04-30 14:20 | 54.88884 | 20.58803 | 19 ft | 25 kts | 246° |
| 2026-04-30 14:20 | 54.88684 | 20.58721 | 23 ft | 16 kts | 156° |
| 2026-04-30 14:21 | 54.88597 | 20.58728 | 23 ft | 10 kts | 236° |
| 2026-04-30 14:21 | 54.88566 | 20.58619 | 23 ft | 10 kts | 244° |
| 2026-04-30 14:21 | 54.88511 | 20.58462 | 23 ft | 3 kts | 175° |
| 2026-04-30 14:22 | 54.88491 | 20.58477 | 25 ft | 3 kts | 155° |
| 2026-04-30 14:22 | 54.88482 | 20.58485 | 24 ft | 0 kts | 155° |